createdAt,value
2017-10-21T00:02:07.026Z,100696.14
2017-10-21T00:04:35.347Z,100700.55
2017-10-21T00:07:03.669Z,100695.81
2017-10-21T00:09:31.990Z,100698.05
2017-10-21T00:12:00.310Z,100694.34
2017-10-21T00:14:28.619Z,100694.31
2017-10-21T00:16:57.778Z,100691.94
2017-10-21T00:19:26.090Z,100685.27
2017-10-21T00:21:55.170Z,100686.17
2017-10-21T00:24:23.483Z,100692.33
2017-10-21T00:26:51.823Z,100689.52
2017-10-21T00:29:20.130Z,100685.79
2017-10-21T00:31:49.206Z,100688.06
2017-10-21T00:34:17.509Z,100678.56
2017-10-21T00:36:46.591Z,100686.98
2017-10-21T00:39:15.671Z,100687.43
2017-10-21T00:41:43.986Z,100683.97
2017-10-21T00:44:12.297Z,100691.11
2017-10-21T00:46:40.614Z,100690.61
2017-10-21T00:49:09.753Z,100692.38
2017-10-21T00:51:38.077Z,100693.75
2017-10-21T00:54:06.396Z,100691.16
2017-10-21T00:56:34.714Z,100691.56
2017-10-21T00:59:03.010Z,100694.28
2017-10-21T01:01:31.343Z,100694.16
2017-10-21T01:03:59.650Z,100693.70
2017-10-21T01:06:27.984Z,100694.74
2017-10-21T01:08:56.291Z,100696.03
2017-10-21T01:11:24.607Z,100696.89
2017-10-21T01:13:53.686Z,100699.11
2017-10-21T01:16:22.027Z,100698.02
2017-10-21T01:18:50.373Z,100693.44
2017-10-21T01:21:19.461Z,100689.11
2017-10-21T01:23:48.543Z,100693.98
2017-10-21T01:26:16.869Z,100689.43
2017-10-21T01:28:45.182Z,100687.79
2017-10-21T01:31:13.521Z,100688.61
2017-10-21T01:33:41.835Z,100683.02
2017-10-21T01:36:10.143Z,100692.06
2017-10-21T01:38:39.223Z,100685.84
2017-10-21T01:41:08.308Z,100689.61
2017-10-21T01:43:36.643Z,100687.30
2017-10-21T01:46:04.969Z,100686.47
2017-10-21T01:48:33.299Z,100686.02
2017-10-21T01:51:01.607Z,100685.93
2017-10-21T01:53:29.917Z,100687.20
2017-10-21T01:55:58.996Z,100689.06
2017-10-21T01:58:27.323Z,100690.97
2017-10-21T02:00:55.623Z,100682.70
2017-10-21T02:03:23.946Z,100683.93
2017-10-21T02:05:53.030Z,100685.34
2017-10-21T02:08:22.157Z,100686.61
2017-10-21T02:10:50.510Z,100687.78
2017-10-21T02:13:19.630Z,100690.05
2017-10-21T02:15:47.935Z,100691.55
2017-10-21T02:18:16.246Z,100692.59
2017-10-21T02:20:44.579Z,100690.41
2017-10-21T02:23:12.924Z,100685.63
2017-10-21T02:25:42.010Z,100690.77
2017-10-21T02:28:11.122Z,100681.64
2017-10-21T02:30:40.232Z,100682.18
2017-10-21T02:33:08.553Z,100680.98
2017-10-21T02:35:36.866Z,100684.27
2017-10-21T02:38:05.949Z,100682.62
2017-10-21T02:40:34.268Z,100683.81
2017-10-21T02:43:02.598Z,100684.50
2017-10-21T02:45:30.958Z,100686.91
2017-10-21T02:47:59.276Z,100691.31
2017-10-21T02:50:28.341Z,100682.33
2017-10-21T02:52:56.667Z,100684.95
2017-10-21T02:55:24.970Z,100684.02
2017-10-21T02:57:53.283Z,100685.98
2017-10-21T03:00:21.585Z,100678.97
2017-10-21T03:02:50.662Z,100689.38
2017-10-21T03:05:18.975Z,100690.20
2017-10-21T03:07:47.277Z,100689.06
2017-10-21T03:10:16.338Z,100690.61
2017-10-21T03:12:44.654Z,100692.12
2017-10-21T03:15:12.961Z,100685.75
2017-10-21T03:17:41.279Z,100678.61
2017-10-21T03:20:09.581Z,100676.06
2017-10-21T03:22:37.899Z,100676.80
2017-10-21T03:25:06.982Z,100678.32
2017-10-21T03:27:35.295Z,100677.41
2017-10-21T03:30:03.602Z,100682.91
2017-10-21T03:32:31.917Z,100675.62
2017-10-21T03:35:00.223Z,100674.43
2017-10-21T03:37:28.558Z,100675.10
2017-10-21T03:39:56.865Z,100674.41
2017-10-21T03:42:25.939Z,100670.88
2017-10-21T03:44:54.250Z,100675.80
2017-10-21T03:47:22.574Z,100673.91
2017-10-21T03:49:50.904Z,100676.09
2017-10-21T03:52:19.207Z,100669.30
2017-10-21T03:54:47.524Z,100679.47
2017-10-21T03:57:15.834Z,100685.70
2017-10-21T03:59:44.150Z,100687.08
2017-10-21T04:02:12.451Z,100686.33
2017-10-21T04:04:40.776Z,100685.78
2017-10-21T04:07:09.073Z,100689.66
2017-10-21T04:09:37.385Z,100689.27
2017-10-21T04:12:05.682Z,100685.66
2017-10-21T04:14:34.774Z,100686.95
2017-10-21T04:17:03.838Z,100690.33
2017-10-21T04:19:32.153Z,100692.78
2017-10-21T04:22:01.226Z,100693.46
2017-10-21T04:24:29.542Z,100687.28
2017-10-21T04:26:57.841Z,100695.56
2017-10-21T04:29:26.153Z,100695.98
2017-10-21T04:31:54.461Z,100696.99
2017-10-21T04:34:23.537Z,100689.47
2017-10-21T04:36:51.854Z,100695.38
2017-10-21T04:39:20.162Z,100692.99
2017-10-21T04:41:48.476Z,100684.91
2017-10-21T04:44:17.562Z,100682.25
2017-10-21T04:46:45.862Z,100680.66
2017-10-21T04:49:14.941Z,100677.34
2017-10-21T04:51:43.251Z,100671.50
2017-10-21T04:54:11.562Z,100675.30
2017-10-21T04:56:39.865Z,100679.88
2017-10-21T04:59:08.178Z,100679.06
2017-10-21T05:01:36.478Z,100682.67
2017-10-21T05:04:04.798Z,100679.66
2017-10-21T05:06:33.102Z,100683.53
2017-10-21T05:09:01.410Z,100686.53
2017-10-21T05:11:29.711Z,100689.25
2017-10-21T05:13:58.030Z,100684.28
2017-10-21T05:16:27.112Z,100687.61
2017-10-21T05:18:56.203Z,100685.05
2017-10-21T05:21:24.510Z,100678.19
2017-10-21T05:23:52.829Z,100678.38
2017-10-21T05:26:21.893Z,100678.08
2017-10-21T05:28:50.202Z,100681.67
2017-10-21T05:31:19.320Z,100683.80
2017-10-21T05:33:47.638Z,100685.58
2017-10-21T05:36:15.952Z,100681.80
2017-10-21T05:38:44.266Z,100685.52
2017-10-21T05:41:13.356Z,100680.58
2017-10-21T05:43:42.444Z,100681.24
2017-10-21T05:46:10.747Z,100664.27
2017-10-21T05:48:39.076Z,100667.52
2017-10-21T05:51:07.374Z,100670.77
2017-10-21T05:53:35.690Z,100670.72
2017-10-21T05:56:03.989Z,100675.22
2017-10-21T05:58:32.354Z,100677.03
2017-10-21T06:01:00.666Z,100678.20
2017-10-21T06:03:28.973Z,100684.64
2017-10-21T06:05:58.063Z,100688.78
2017-10-21T06:08:27.130Z,100689.45
2017-10-21T06:10:55.442Z,100684.97
2017-10-21T06:13:24.516Z,100687.97
2017-10-21T06:15:52.821Z,100686.46
2017-10-21T06:18:21.885Z,100691.28
2017-10-21T06:20:50.224Z,100696.95
2017-10-21T06:23:18.530Z,100699.54
2017-10-21T06:25:46.844Z,100700.67
2017-10-21T06:28:15.950Z,100706.31
2017-10-21T06:30:45.032Z,100705.88
2017-10-21T06:33:14.102Z,100706.03
2017-10-21T06:35:42.419Z,100710.89
2017-10-21T06:38:10.723Z,100711.42
2017-10-21T06:40:39.034Z,100716.45
2017-10-21T06:43:07.341Z,100713.25
2017-10-21T06:45:36.437Z,100709.39
2017-10-21T06:48:05.513Z,100705.39
2017-10-21T06:50:33.823Z,100708.28
2017-10-21T06:53:02.131Z,100715.34
2017-10-21T06:55:30.442Z,100726.52
2017-10-21T06:57:58.750Z,100726.09
2017-10-21T07:00:27.837Z,100719.17
2017-10-21T07:02:56.902Z,100732.36
2017-10-21T07:05:25.216Z,100741.77
2017-10-21T07:07:53.514Z,100736.41
2017-10-21T07:10:21.828Z,100737.41
2017-10-21T07:12:50.141Z,100737.12
2017-10-21T07:15:19.228Z,100729.09
2017-10-21T07:17:48.294Z,100739.13
2017-10-21T07:20:16.615Z,100733.08
2017-10-21T07:22:44.924Z,100727.95
2017-10-21T07:25:13.241Z,100726.94
2017-10-21T07:27:41.550Z,100726.35
2017-10-21T07:30:09.862Z,100733.56
2017-10-21T07:32:38.167Z,100734.03
2017-10-21T07:35:06.488Z,100724.51
2017-10-21T07:37:34.801Z,100730.14
2017-10-21T07:40:03.152Z,100737.59
2017-10-21T07:42:31.453Z,100738.77
2017-10-21T07:44:59.765Z,100740.59
2017-10-21T07:47:28.078Z,100750.02
2017-10-21T07:49:56.411Z,100743.72
2017-10-21T07:52:24.719Z,100737.33
2017-10-21T07:54:53.809Z,100737.05
2017-10-21T07:57:22.878Z,100739.35
2017-10-21T07:59:51.182Z,100744.18
2017-10-21T08:02:20.263Z,100742.73
2017-10-21T08:04:49.342Z,100751.55
2017-10-21T08:07:18.429Z,100747.20
2017-10-21T08:09:46.751Z,100748.33
2017-10-21T08:12:15.830Z,100742.12
2017-10-21T08:14:44.899Z,100749.70
2017-10-21T08:17:13.213Z,100738.11
2017-10-21T08:19:42.445Z,100740.06
2017-10-21T08:22:10.750Z,100730.92
2017-10-21T08:24:39.058Z,100727.38
2017-10-21T08:27:07.371Z,100733.73
2017-10-21T08:29:35.686Z,100733.66
2017-10-21T08:32:04.005Z,100726.19
2017-10-21T08:34:32.314Z,100724.19
2017-10-21T08:37:00.629Z,100724.98
2017-10-21T08:39:28.932Z,100723.23
2017-10-21T08:41:58.001Z,100724.03
2017-10-21T08:44:26.309Z,100721.83
2017-10-21T08:46:55.390Z,100728.41
2017-10-21T08:49:24.458Z,100722.96
2017-10-21T08:54:28.327Z,100718.91
2017-10-21T08:56:56.652Z,100716.91
2017-10-21T08:59:24.957Z,100721.94
2017-10-21T09:01:53.271Z,100722.88
2017-10-21T09:04:21.579Z,100712.16
2017-10-21T09:06:49.896Z,100723.88
2017-10-21T09:09:18.966Z,100733.58
2017-10-21T09:11:47.278Z,100743.79
2017-10-21T09:14:16.346Z,100733.47
2017-10-21T09:16:44.666Z,100721.77
2017-10-21T09:19:12.962Z,100723.58
2017-10-21T09:21:41.290Z,100728.58
2017-10-21T09:24:10.282Z,100737.01
2017-10-21T09:26:38.598Z,100739.02
2017-10-21T09:29:06.918Z,100738.56
2017-10-21T09:31:35.227Z,100734.48
2017-10-21T09:34:04.294Z,100733.77
2017-10-21T09:36:32.589Z,100727.28
2017-10-21T09:39:00.907Z,100732.09
2017-10-21T09:41:29.274Z,100728.00
2017-10-21T09:43:57.599Z,100717.25
2017-10-21T09:46:25.910Z,100716.50
2017-10-21T09:48:55.043Z,100715.37
2017-10-21T09:51:23.345Z,100699.73
2017-10-21T09:53:51.686Z,100702.48
2017-10-21T09:56:19.994Z,100710.89
2017-10-21T09:58:48.314Z,100710.23
2017-10-21T10:01:17.387Z,100707.09
2017-10-21T10:03:45.722Z,100708.08
2017-10-21T10:06:14.025Z,100716.18
2017-10-21T10:08:42.339Z,100710.44
2017-10-21T10:11:11.413Z,100705.94
2017-10-21T10:13:39.724Z,100695.58
2017-10-21T10:16:08.128Z,100697.91
2017-10-21T10:18:36.444Z,100703.12
2017-10-21T10:21:04.758Z,100702.00
2017-10-21T10:23:33.087Z,100712.88
2017-10-21T10:26:01.386Z,100710.00
2017-10-21T10:28:29.703Z,100702.99
2017-10-21T10:30:57.998Z,100700.66
2017-10-21T10:33:26.311Z,100699.61
2017-10-21T10:35:54.614Z,100701.02
2017-10-21T10:38:23.698Z,100689.84
2017-10-21T10:40:52.022Z,100687.70
2017-10-21T10:43:20.335Z,100686.08
2017-10-21T10:45:48.700Z,100690.22
2017-10-21T10:48:17.015Z,100679.66
2017-10-21T10:50:46.091Z,100674.87
2017-10-21T10:53:14.409Z,100670.20
2017-10-21T10:55:42.714Z,100663.30
2017-10-21T10:58:11.029Z,100644.11
2017-10-21T11:00:39.335Z,100644.93
2017-10-21T11:03:08.454Z,100646.30
2017-10-21T11:05:36.785Z,100643.59
2017-10-21T11:08:05.106Z,100644.11
2017-10-21T11:10:34.978Z,100633.43
2017-10-21T11:13:03.295Z,100629.94
2017-10-21T11:15:31.623Z,100624.04
2017-10-21T11:17:59.956Z,100628.69
2017-10-21T11:20:28.274Z,100631.95
2017-10-21T11:22:56.583Z,100633.20
2017-10-21T11:25:25.666Z,100635.72
2017-10-21T11:27:53.962Z,100636.73
2017-10-21T11:30:23.046Z,100632.83
2017-10-21T11:32:52.121Z,100622.41
2017-10-21T11:35:20.454Z,100625.96
2017-10-21T11:37:48.755Z,100631.16
2017-10-21T11:40:17.070Z,100632.13
2017-10-21T11:42:46.134Z,100623.77
2017-10-21T11:45:14.456Z,100615.67
2017-10-21T11:47:43.530Z,100619.38
2017-10-21T11:50:11.845Z,100615.12
2017-10-21T11:52:40.147Z,100608.95
2017-10-21T11:55:08.466Z,100599.48
2017-10-21T11:57:36.865Z,100597.83
2017-10-21T12:00:05.182Z,100603.72
2017-10-21T12:02:33.503Z,100598.38
2017-10-21T12:05:02.590Z,100596.34
2017-10-21T12:07:30.898Z,100593.42
2017-10-21T12:09:59.294Z,100592.78
2017-10-21T12:12:27.596Z,100593.01
2017-10-21T12:14:55.914Z,100588.13
2017-10-21T12:17:24.998Z,100580.71
2017-10-21T12:19:53.309Z,100596.20
2017-10-21T12:22:21.610Z,100598.16
2017-10-21T12:24:49.927Z,100593.34
2017-10-21T12:27:18.242Z,100593.91
2017-10-21T12:29:46.554Z,100588.28
2017-10-21T12:32:14.870Z,100585.95
2017-10-21T12:34:43.950Z,100584.58
2017-10-21T12:37:12.258Z,100583.81
2017-10-21T12:39:40.574Z,100581.22
2017-10-21T12:42:08.884Z,100573.50
2017-10-21T12:44:37.216Z,100566.23
2017-10-21T12:47:05.519Z,100568.27
2017-10-21T12:49:34.598Z,100568.42
2017-10-21T12:52:02.906Z,100563.23
2017-10-21T12:54:31.224Z,100555.26
2017-10-21T12:56:59.530Z,100557.08
2017-10-21T12:59:27.840Z,100556.56
2017-10-21T13:01:56.158Z,100552.33
2017-10-21T13:04:24.470Z,100557.56
2017-10-21T13:06:52.786Z,100557.42
2017-10-21T13:09:22.540Z,100559.06
2017-10-21T13:11:50.874Z,100548.36
2017-10-21T13:14:20.072Z,100561.14
2017-10-21T13:16:48.414Z,100563.86
2017-10-21T13:19:17.043Z,100564.55
2017-10-21T13:21:46.125Z,100568.76
2017-10-21T13:24:15.206Z,100567.94
2017-10-21T13:26:43.525Z,100569.02
2017-10-21T13:29:11.826Z,100570.95
2017-10-21T13:31:40.149Z,100570.13
2017-10-21T13:34:08.457Z,100572.58
2017-10-21T13:36:36.770Z,100572.31
2017-10-21T13:39:05.078Z,100578.63
2017-10-21T13:41:33.393Z,100582.22
2017-10-21T13:44:01.699Z,100581.53
2017-10-21T13:46:30.010Z,100577.16
2017-10-21T13:48:58.310Z,100573.73
2017-10-21T13:51:26.625Z,100569.33
2017-10-21T13:53:54.925Z,100567.56
2017-10-21T13:56:23.238Z,100571.94
2017-10-21T13:58:52.315Z,100577.16
2017-10-21T14:01:20.638Z,100582.11
2017-10-21T14:03:48.947Z,100585.52
2017-10-21T14:06:17.256Z,100592.65
2017-10-21T14:08:46.382Z,100593.31
2017-10-21T14:11:15.490Z,100611.13
2017-10-21T14:13:43.809Z,100615.25
2017-10-21T14:16:12.571Z,100607.45
2017-10-21T14:18:40.894Z,100609.66
2017-10-21T14:21:09.209Z,100599.37
2017-10-21T14:23:37.585Z,100597.72
2017-10-21T14:26:05.891Z,100602.09
2017-10-21T14:28:34.209Z,100602.22
2017-10-21T14:31:03.277Z,100591.66
2017-10-21T14:33:31.599Z,100597.77
2017-10-21T14:35:59.991Z,100591.94
2017-10-21T14:38:28.317Z,100601.97
2017-10-21T14:40:56.634Z,100598.90
2017-10-21T14:43:24.950Z,100590.91
2017-10-21T14:45:53.267Z,100586.02
2017-10-21T14:48:22.350Z,100587.03
2017-10-21T14:50:50.659Z,100589.02
2017-10-21T14:53:18.971Z,100594.37
2017-10-21T14:55:47.280Z,100592.17
2017-10-21T14:58:15.594Z,100592.15
2017-10-21T15:00:43.898Z,100587.80
2017-10-21T15:03:12.212Z,100583.57
2017-10-21T15:05:40.528Z,100576.50
2017-10-21T15:08:08.834Z,100583.77
2017-10-21T15:10:37.139Z,100580.77
2017-10-21T15:13:05.450Z,100578.61
2017-10-21T15:15:33.803Z,100584.63
2017-10-21T15:18:02.120Z,100578.92
2017-10-21T15:20:30.438Z,100579.08
2017-10-21T15:22:58.753Z,100583.84
2017-10-21T15:25:27.823Z,100578.17
2017-10-21T15:27:56.135Z,100572.47
2017-10-21T15:30:24.441Z,100574.13
2017-10-21T15:32:52.757Z,100555.67
2017-10-21T15:35:21.087Z,100562.94
2017-10-21T15:37:49.407Z,100560.75
2017-10-21T15:40:17.719Z,100557.23
2017-10-21T15:42:46.045Z,100563.09
2017-10-21T15:45:14.345Z,100561.00
2017-10-21T15:47:43.432Z,100549.37
2017-10-21T15:50:11.745Z,100559.17
2017-10-21T15:52:40.063Z,100557.11
2017-10-21T15:55:08.368Z,100564.66
2017-10-21T15:57:36.684Z,100557.36
2017-10-21T16:00:04.986Z,100552.73
2017-10-21T16:02:33.310Z,100548.50
2017-10-21T16:05:02.389Z,100548.42
2017-10-21T16:07:30.702Z,100544.55
2017-10-21T16:09:59.019Z,100533.16
2017-10-21T16:12:27.334Z,100531.72
2017-10-21T16:14:55.651Z,100528.50
2017-10-21T16:17:23.967Z,100528.67
2017-10-21T16:19:52.285Z,100530.98
2017-10-21T16:22:21.359Z,100547.27
2017-10-21T16:24:49.675Z,100551.86
2017-10-21T16:27:17.984Z,100559.37
2017-10-21T16:29:46.297Z,100561.11
2017-10-21T16:32:15.365Z,100563.30
2017-10-21T16:34:43.722Z,100569.19
2017-10-21T16:37:12.036Z,100568.50
2017-10-21T16:39:40.344Z,100565.64
2017-10-21T16:42:08.646Z,100560.47
2017-10-21T16:44:36.955Z,100553.78
2017-10-21T16:47:05.808Z,100549.68
2017-10-21T16:49:34.125Z,100544.28
2017-10-21T16:52:02.436Z,100548.79
2017-10-21T16:54:31.514Z,100543.90
2017-10-21T16:56:59.821Z,100534.98
2017-10-21T16:59:28.138Z,100546.36
2017-10-21T17:01:56.438Z,100558.27
2017-10-21T17:04:24.775Z,100555.39
2017-10-21T17:06:53.074Z,100555.23
2017-10-21T17:09:22.163Z,100555.92
2017-10-21T17:11:50.466Z,100548.67
2017-10-21T17:14:18.798Z,100547.25
2017-10-21T17:16:47.100Z,100552.59
2017-10-21T17:19:15.418Z,100544.42
2017-10-21T17:21:44.482Z,100535.84
2017-10-21T17:24:12.807Z,100530.07
2017-10-21T17:26:41.124Z,100533.17
2017-10-21T17:29:09.433Z,100541.08
2017-10-21T17:31:41.956Z,100538.89
2017-10-21T17:34:10.269Z,100549.80
2017-10-21T17:36:38.566Z,100550.77
2017-10-21T17:39:07.646Z,100548.18
2017-10-21T17:41:35.946Z,100545.52
2017-10-21T17:44:05.033Z,100546.08
2017-10-21T17:46:34.113Z,100532.16
2017-10-21T17:49:02.426Z,100526.78
2017-10-21T17:51:30.730Z,100530.03
2017-10-21T17:53:59.055Z,100531.65
2017-10-21T17:56:28.140Z,100522.55
2017-10-21T17:58:56.462Z,100520.40
2017-10-21T18:01:24.846Z,100509.06
2017-10-21T18:03:53.211Z,100510.65
2017-10-21T18:06:21.517Z,100519.98
2017-10-21T18:08:49.826Z,100514.80
2017-10-21T18:11:18.138Z,100508.47
2017-10-21T18:13:47.225Z,100525.86
2017-10-21T18:16:16.302Z,100522.72
2017-10-21T18:18:44.598Z,100512.61
2017-10-21T18:21:13.682Z,100498.68
2017-10-21T18:23:41.993Z,100499.89
2017-10-21T18:26:10.301Z,100498.54
2017-10-21T18:28:38.602Z,100499.61
2017-10-21T18:31:06.917Z,100490.59
2017-10-21T18:33:35.228Z,100480.20
2017-10-21T18:36:03.546Z,100481.59
2017-10-21T18:38:31.882Z,100482.84
2017-10-21T18:41:00.239Z,100475.30
2017-10-21T18:43:28.562Z,100472.72
2017-10-21T18:45:56.874Z,100473.39
2017-10-21T18:48:25.969Z,100451.55
2017-10-21T18:50:55.077Z,100447.92
2017-10-21T18:53:23.387Z,100465.70
2017-10-21T18:55:52.484Z,100479.79
2017-10-21T18:58:20.813Z,100475.14
2017-10-21T19:00:49.917Z,100461.52
2017-10-21T19:03:18.995Z,100461.67
2017-10-21T19:05:48.090Z,100475.97
2017-10-21T19:08:16.425Z,100487.57
2017-10-21T19:10:44.738Z,100482.69
2017-10-21T19:13:13.060Z,100484.18
2017-10-21T19:15:41.454Z,100481.13
2017-10-21T19:18:09.774Z,100482.93
2017-10-21T19:20:38.126Z,100494.65
2017-10-21T19:23:06.455Z,100491.59
2017-10-21T19:25:34.768Z,100481.63
2017-10-21T19:28:03.107Z,100476.05
2017-10-21T19:30:32.218Z,100480.97
2017-10-21T19:33:00.546Z,100473.87
2017-10-21T19:35:28.854Z,100466.63
2017-10-21T19:37:57.935Z,100451.37
2017-10-21T19:42:59.930Z,100441.03
2017-10-21T19:45:29.012Z,100434.84
2017-10-21T19:47:58.102Z,100449.02
2017-10-21T19:50:26.417Z,100475.16
2017-10-21T19:52:54.748Z,100486.44
2017-10-21T19:55:23.069Z,100496.12
2017-10-21T19:57:51.391Z,100490.53
2017-10-21T20:00:19.702Z,100488.65
2017-10-21T20:02:48.791Z,100493.02
2017-10-21T20:05:17.932Z,100490.34
2017-10-21T20:07:46.250Z,100493.26
2017-10-21T20:10:14.581Z,100488.06
2017-10-21T20:12:42.892Z,100489.57
2017-10-21T20:15:11.206Z,100479.92
2017-10-21T20:17:40.313Z,100477.52
2017-10-21T20:20:08.622Z,100480.79
2017-10-21T20:22:36.950Z,100483.80
2017-10-21T20:25:06.032Z,100487.42
2017-10-21T20:27:35.123Z,100469.38
2017-10-21T20:30:03.442Z,100466.49
2017-10-21T20:32:31.766Z,100480.34
2017-10-21T20:35:00.073Z,100478.53
2017-10-21T20:37:29.161Z,100470.73
2017-10-21T20:39:57.479Z,100469.94
2017-10-21T20:42:25.805Z,100475.80
2017-10-21T20:44:54.897Z,100479.31
2017-10-21T20:47:23.237Z,100480.59
2017-10-21T20:49:51.551Z,100490.53
2017-10-21T20:52:19.879Z,100495.79
2017-10-21T20:54:48.186Z,100490.88
2017-10-21T20:57:16.504Z,100496.09
2017-10-21T20:59:45.581Z,100489.19
2017-10-21T21:02:13.903Z,100494.53
2017-10-21T21:04:42.212Z,100493.60
2017-10-21T21:07:10.594Z,100484.48
2017-10-21T21:09:38.913Z,100466.06
2017-10-21T21:12:08.009Z,100461.47
2017-10-21T21:14:37.092Z,100469.50
2017-10-21T21:17:05.422Z,100467.02
2017-10-21T21:19:33.759Z,100476.65
2017-10-21T21:22:02.890Z,100484.05
2017-10-21T21:24:31.198Z,100485.23
2017-10-21T21:26:59.550Z,100486.07
2017-10-21T21:29:27.862Z,100472.82
2017-10-21T21:31:56.178Z,100479.72
2017-10-21T21:34:24.500Z,100480.98
2017-10-21T21:36:52.811Z,100492.44
2017-10-21T21:39:21.133Z,100495.08
2017-10-21T21:41:49.501Z,100501.36
2017-10-21T21:44:20.172Z,100500.31
2017-10-21T21:46:49.262Z,100506.16
2017-10-21T21:49:17.686Z,100509.69
2017-10-21T21:51:46.812Z,100506.85
2017-10-21T21:54:15.177Z,100509.14
2017-10-21T21:56:43.562Z,100509.69
2017-10-21T21:59:12.018Z,100509.95
2017-10-21T22:01:40.869Z,100510.50
2017-10-21T22:04:09.285Z,100517.16
2017-10-21T22:06:38.418Z,100508.27
2017-10-21T22:09:06.791Z,100497.70
2017-10-21T22:11:35.202Z,100505.94
2017-10-21T22:14:03.634Z,100506.72
2017-10-21T22:16:31.997Z,100511.05
2017-10-21T22:19:00.375Z,100503.28
2017-10-21T22:21:28.734Z,100505.22
2017-10-21T22:23:57.082Z,100501.92
2017-10-21T22:26:25.398Z,100490.12
2017-10-21T22:28:53.766Z,100486.01
2017-10-21T22:31:22.113Z,100485.20
2017-10-21T22:33:50.478Z,100477.94
2017-10-21T22:36:18.841Z,100474.94
2017-10-21T22:38:47.178Z,100472.89
2017-10-21T22:41:15.505Z,100472.47
2017-10-21T22:43:43.857Z,100469.88
2017-10-21T22:46:12.187Z,100457.01
2017-10-21T22:48:40.528Z,100450.34
2017-10-21T22:51:08.848Z,100444.28
2017-10-21T22:53:37.174Z,100440.08
2017-10-21T22:56:06.286Z,100444.56
2017-10-21T22:58:34.674Z,100471.71
2017-10-21T23:01:03.006Z,100488.53
2017-10-21T23:03:31.366Z,100470.89
2017-10-21T23:05:59.739Z,100430.22
2017-10-21T23:08:28.964Z,100454.83
2017-10-21T23:10:57.319Z,100471.76
2017-10-21T23:13:25.698Z,100481.75
2017-10-21T23:15:54.015Z,100486.48
2017-10-21T23:18:23.087Z,100482.36
2017-10-21T23:20:51.420Z,100477.02
2017-10-21T23:23:20.778Z,100472.32
2017-10-21T23:25:49.108Z,100477.91
2017-10-21T23:28:17.416Z,100473.16
2017-10-21T23:30:45.752Z,100475.19
2017-10-21T23:33:14.101Z,100471.86
2017-10-21T23:35:43.225Z,100479.61
2017-10-21T23:38:11.593Z,100474.72
2017-10-21T23:40:39.933Z,100467.44
2017-10-21T23:43:08.280Z,100470.58
2017-10-21T23:45:36.638Z,100469.40
2017-10-21T23:48:04.955Z,100476.14
2017-10-21T23:50:33.298Z,100477.23
2017-10-21T23:53:01.602Z,100476.47
2017-10-21T23:55:29.937Z,100471.66
2017-10-21T23:57:58.258Z,100458.80
